sensor_id;sensor_type;location;lat;lon;timestamp;pressure;altitude;pressure_sealevel;temperature;humidity
13068;BME280;6600;51.362;6.686;2022-12-07T00:02:20;101289.88;;;7.13;100.00
13068;BME280;6600;51.362;6.686;2022-12-07T00:04:45;101292.25;;;7.07;100.00
13068;BME280;6600;51.362;6.686;2022-12-07T00:07:10;101288.69;;;7.15;100.00
13068;BME280;6600;51.362;6.686;2022-12-07T00:09:36;101296.50;;;7.17;100.00
13068;BME280;6600;51.362;6.686;2022-12-07T00:12:01;101290.00;;;7.19;100.00
13068;BME280;6600;51.362;6.686;2022-12-07T00:14:26;101302.31;;;7.20;100.00
13068;BME280;6600;51.362;6.686;2022-12-07T00:16:52;101294.59;;;7.25;100.00
13068;BME280;6600;51.362;6.686;2022-12-07T00:19:17;101299.81;;;7.19;100.00
13068;BME280;6600;51.362;6.686;2022-12-07T00:21:43;101303.84;;;7.37;100.00
13068;BME280;6600;51.362;6.686;2022-12-07T00:24:10;101300.06;;;7.46;100.00
13068;BME280;6600;51.362;6.686;2022-12-07T00:26:38;101294.78;;;7.24;100.00
13068;BME280;6600;51.362;6.686;2022-12-07T00:29:23;101292.72;;;7.11;100.00
13068;BME280;6600;51.362;6.686;2022-12-07T00:31:49;101289.31;;;7.17;100.00
13068;BME280;6600;51.362;6.686;2022-12-07T00:34:20;101289.25;;;7.25;100.00
13068;BME280;6600;51.362;6.686;2022-12-07T00:36:46;101290.94;;;7.26;100.00
13068;BME280;6600;51.362;6.686;2022-12-07T00:39:11;101288.53;;;7.31;100.00
13068;BME280;6600;51.362;6.686;2022-12-07T00:41:37;101282.28;;;7.24;100.00
13068;BME280;6600;51.362;6.686;2022-12-07T00:44:02;101283.81;;;7.19;100.00
13068;BME280;6600;51.362;6.686;2022-12-07T00:46:28;101280.16;;;7.20;100.00
13068;BME280;6600;51.362;6.686;2022-12-07T00:48:53;101274.00;;;7.19;100.00
13068;BME280;6600;51.362;6.686;2022-12-07T00:51:22;101279.53;;;7.32;100.00
13068;BME280;6600;51.362;6.686;2022-12-07T00:53:48;101276.72;;;7.34;100.00
13068;BME280;6600;51.362;6.686;2022-12-07T00:56:24;101267.50;;;7.36;100.00
13068;BME280;6600;51.362;6.686;2022-12-07T01:01:18;101269.72;;;7.33;100.00
13068;BME280;6600;51.362;6.686;2022-12-07T01:03:44;101279.31;;;7.19;100.00
13068;BME280;6600;51.362;6.686;2022-12-07T01:06:14;101276.59;;;7.27;100.00
13068;BME280;6600;51.362;6.686;2022-12-07T01:08:40;101272.22;;;7.34;100.00
13068;BME280;6600;51.362;6.686;2022-12-07T01:11:07;101271.75;;;7.45;100.00
13068;BME280;6600;51.362;6.686;2022-12-07T01:13:34;101268.91;;;7.47;100.00
13068;BME280;6600;51.362;6.686;2022-12-07T01:16:01;101274.06;;;7.63;100.00
13068;BME280;6600;51.362;6.686;2022-12-07T01:18:31;101271.69;;;7.53;100.00
13068;BME280;6600;51.362;6.686;2022-12-07T01:21:08;101264.00;;;7.36;100.00
13068;BME280;6600;51.362;6.686;2022-12-07T01:23:34;101262.97;;;7.22;100.00
13068;BME280;6600;51.362;6.686;2022-12-07T01:26:02;101273.63;;;7.22;100.00
13068;BME280;6600;51.362;6.686;2022-12-07T01:28:28;101264.66;;;7.23;100.00
13068;BME280;6600;51.362;6.686;2022-12-07T01:31:24;101262.59;;;7.25;100.00
13068;BME280;6600;51.362;6.686;2022-12-07T01:33:52;101257.34;;;7.17;100.00
13068;BME280;6600;51.362;6.686;2022-12-07T01:36:23;101267.72;;;7.12;100.00
13068;BME280;6600;51.362;6.686;2022-12-07T01:38:51;101268.38;;;7.14;100.00
13068;BME280;6600;51.362;6.686;2022-12-07T01:41:18;101273.13;;;7.04;100.00
13068;BME280;6600;51.362;6.686;2022-12-07T01:46:42;101277.81;;;7.02;100.00
13068;BME280;6600;51.362;6.686;2022-12-07T01:49:41;101273.84;;;6.98;100.00
13068;BME280;6600;51.362;6.686;2022-12-07T01:52:24;101266.38;;;6.93;100.00
13068;BME280;6600;51.362;6.686;2022-12-07T01:54:58;101268.75;;;6.88;100.00
13068;BME280;6600;51.362;6.686;2022-12-07T01:57:24;101263.59;;;6.87;100.00
13068;BME280;6600;51.362;6.686;2022-12-07T01:59:51;101261.75;;;6.87;100.00
13068;BME280;6600;51.362;6.686;2022-12-07T02:02:26;101267.03;;;6.95;100.00
13068;BME280;6600;51.362;6.686;2022-12-07T02:04:53;101258.09;;;6.88;100.00
13068;BME280;6600;51.362;6.686;2022-12-07T02:07:20;101255.78;;;6.85;100.00
13068;BME280;6600;51.362;6.686;2022-12-07T02:09:46;101249.09;;;6.67;100.00
13068;BME280;6600;51.362;6.686;2022-12-07T02:12:12;101249.63;;;6.85;100.00
13068;BME280;6600;51.362;6.686;2022-12-07T02:14:37;101243.34;;;6.78;100.00
13068;BME280;6600;51.362;6.686;2022-12-07T02:17:20;101244.94;;;6.87;100.00
13068;BME280;6600;51.362;6.686;2022-12-07T02:23:03;101246.31;;;6.83;100.00
13068;BME280;6600;51.362;6.686;2022-12-07T02:28:34;101256.38;;;6.95;100.00
13068;BME280;6600;51.362;6.686;2022-12-07T02:31:08;101253.28;;;6.84;100.00
13068;BME280;6600;51.362;6.686;2022-12-07T02:33:38;101259.50;;;6.76;100.00
13068;BME280;6600;51.362;6.686;2022-12-07T02:36:12;101263.13;;;6.83;100.00
13068;BME280;6600;51.362;6.686;2022-12-07T02:38:45;101259.47;;;6.84;100.00
13068;BME280;6600;51.362;6.686;2022-12-07T02:41:17;101260.56;;;6.90;100.00
13068;BME280;6600;51.362;6.686;2022-12-07T02:43:56;101258.94;;;6.89;100.00
13068;BME280;6600;51.362;6.686;2022-12-07T02:46:27;101258.22;;;6.95;100.00
13068;BME280;6600;51.362;6.686;2022-12-07T02:48:54;101251.31;;;6.86;100.00
13068;BME280;6600;51.362;6.686;2022-12-07T02:51:21;101254.66;;;6.80;100.00
13068;BME280;6600;51.362;6.686;2022-12-07T02:53:46;101247.50;;;6.80;100.00
13068;BME280;6600;51.362;6.686;2022-12-07T03:04:50;101262.16;;;6.53;100.00
13068;BME280;6600;51.362;6.686;2022-12-07T03:07:51;101254.81;;;6.55;100.00
13068;BME280;6600;51.362;6.686;2022-12-07T03:15:49;101263.13;;;6.60;100.00
13068;BME280;6600;51.362;6.686;2022-12-07T03:18:18;101274.97;;;6.58;100.00
13068;BME280;6600;51.362;6.686;2022-12-07T03:20:46;101266.19;;;6.49;100.00
13068;BME280;6600;51.362;6.686;2022-12-07T03:23:15;101259.00;;;6.58;100.00
13068;BME280;6600;51.362;6.686;2022-12-07T03:25:46;101254.81;;;6.55;100.00
13068;BME280;6600;51.362;6.686;2022-12-07T03:28:16;101249.84;;;6.52;100.00
13068;BME280;6600;51.362;6.686;2022-12-07T03:30:52;101256.25;;;6.43;100.00
13068;BME280;6600;51.362;6.686;2022-12-07T03:33:28;101252.22;;;6.47;100.00
13068;BME280;6600;51.362;6.686;2022-12-07T03:36:08;101259.19;;;6.48;100.00
13068;BME280;6600;51.362;6.686;2022-12-07T03:38:46;101260.25;;;6.39;100.00
13068;BME280;6600;51.362;6.686;2022-12-07T03:41:19;101256.94;;;6.37;100.00
13068;BME280;6600;51.362;6.686;2022-12-07T03:43:48;101257.97;;;6.28;100.00
13068;BME280;6600;51.362;6.686;2022-12-07T03:54:54;101265.06;;;6.13;100.00
13068;BME280;6600;51.362;6.686;2022-12-07T03:57:22;101254.75;;;6.10;100.00
13068;BME280;6600;51.362;6.686;2022-12-07T03:59:49;101260.56;;;6.14;100.00
13068;BME280;6600;51.362;6.686;2022-12-07T04:02:16;101263.38;;;6.12;100.00
13068;BME280;6600;51.362;6.686;2022-12-07T04:04:42;101261.38;;;6.14;100.00
13068;BME280;6600;51.362;6.686;2022-12-07T04:07:08;101257.00;;;6.21;100.00
13068;BME280;6600;51.362;6.686;2022-12-07T04:09:33;101254.66;;;6.26;100.00
13068;BME280;6600;51.362;6.686;2022-12-07T04:11:59;101263.28;;;6.28;100.00
13068;BME280;6600;51.362;6.686;2022-12-07T04:14:24;101255.63;;;6.33;100.00
13068;BME280;6600;51.362;6.686;2022-12-07T04:16:52;101260.25;;;6.39;100.00
13068;BME280;6600;51.362;6.686;2022-12-07T04:19:19;101258.53;;;6.46;100.00
13068;BME280;6600;51.362;6.686;2022-12-07T04:21:46;101257.91;;;6.44;100.00
13068;BME280;6600;51.362;6.686;2022-12-07T04:24:12;101253.31;;;6.61;100.00
13068;BME280;6600;51.362;6.686;2022-12-07T04:26:38;101248.22;;;6.51;100.00
13068;BME280;6600;51.362;6.686;2022-12-07T04:29:04;101248.22;;;6.51;100.00
13068;BME280;6600;51.362;6.686;2022-12-07T04:31:30;101246.03;;;6.55;100.00
13068;BME280;6600;51.362;6.686;2022-12-07T04:33:55;101235.06;;;6.50;100.00
13068;BME280;6600;51.362;6.686;2022-12-07T04:36:21;101234.00;;;6.36;100.00
13068;BME280;6600;51.362;6.686;2022-12-07T04:38:47;101241.66;;;6.31;100.00
13068;BME280;6600;51.362;6.686;2022-12-07T04:41:12;101249.00;;;6.29;100.00
13068;BME280;6600;51.362;6.686;2022-12-07T04:43:37;101246.00;;;6.24;100.00
13068;BME280;6600;51.362;6.686;2022-12-07T04:46:03;101240.38;;;6.27;100.00
13068;BME280;6600;51.362;6.686;2022-12-07T04:48:28;101240.91;;;6.15;100.00
13068;BME280;6600;51.362;6.686;2022-12-07T04:50:54;101248.34;;;6.27;100.00
13068;BME280;6600;51.362;6.686;2022-12-07T04:53:19;101250.06;;;6.20;100.00
13068;BME280;6600;51.362;6.686;2022-12-07T04:55:45;101248.38;;;6.19;100.00
13068;BME280;6600;51.362;6.686;2022-12-07T04:58:11;101249.44;;;6.10;100.00
13068;BME280;6600;51.362;6.686;2022-12-07T05:00:37;101242.94;;;6.13;100.00
13068;BME280;6600;51.362;6.686;2022-12-07T05:03:03;101253.09;;;6.09;100.00
13068;BME280;6600;51.362;6.686;2022-12-07T05:05:28;101244.78;;;6.04;100.00
13068;BME280;6600;51.362;6.686;2022-12-07T05:07:53;101245.09;;;6.09;100.00
13068;BME280;6600;51.362;6.686;2022-12-07T05:10:19;101247.41;;;6.12;100.00
13068;BME280;6600;51.362;6.686;2022-12-07T05:12:44;101246.94;;;6.08;100.00
13068;BME280;6600;51.362;6.686;2022-12-07T05:15:11;101241.97;;;6.05;100.00
13068;BME280;6600;51.362;6.686;2022-12-07T05:17:36;101247.91;;;6.16;100.00
13068;BME280;6600;51.362;6.686;2022-12-07T05:20:02;101246.09;;;6.08;100.00
13068;BME280;6600;51.362;6.686;2022-12-07T05:22:27;101247.78;;;6.09;100.00
13068;BME280;6600;51.362;6.686;2022-12-07T05:24:56;101251.56;;;6.15;100.00
13068;BME280;6600;51.362;6.686;2022-12-07T05:27:21;101254.09;;;6.08;100.00
13068;BME280;6600;51.362;6.686;2022-12-07T05:29:47;101246.81;;;6.02;100.00
13068;BME280;6600;51.362;6.686;2022-12-07T05:32:12;101250.09;;;6.04;100.00
13068;BME280;6600;51.362;6.686;2022-12-07T05:34:37;101244.44;;;6.07;100.00
13068;BME280;6600;51.362;6.686;2022-12-07T05:37:03;101241.13;;;6.05;100.00
13068;BME280;6600;51.362;6.686;2022-12-07T05:39:28;101245.59;;;6.13;100.00
13068;BME280;6600;51.362;6.686;2022-12-07T05:41:53;101242.44;;;6.09;100.00
13068;BME280;6600;51.362;6.686;2022-12-07T05:44:44;101236.78;;;6.12;100.00
13068;BME280;6600;51.362;6.686;2022-12-07T05:47:11;101238.56;;;6.20;100.00
13068;BME280;6600;51.362;6.686;2022-12-07T05:49:37;101233.59;;;6.17;100.00
13068;BME280;6600;51.362;6.686;2022-12-07T05:52:03;101230.28;;;6.15;100.00
13068;BME280;6600;51.362;6.686;2022-12-07T05:54:28;101235.81;;;6.05;100.00
13068;BME280;6600;51.362;6.686;2022-12-07T05:56:54;101228.69;;;5.97;100.00
13068;BME280;6600;51.362;6.686;2022-12-07T05:59:20;101240.81;;;6.00;100.00
13068;BME280;6600;51.362;6.686;2022-12-07T06:01:53;101236.50;;;5.99;100.00
13068;BME280;6600;51.362;6.686;2022-12-07T06:04:19;101238.00;;;5.93;100.00
13068;BME280;6600;51.362;6.686;2022-12-07T06:06:45;101239.81;;;6.01;100.00
13068;BME280;6600;51.362;6.686;2022-12-07T06:09:11;101237.47;;;6.06;100.00
13068;BME280;6600;51.362;6.686;2022-12-07T06:11:37;101236.66;;;6.05;100.00
13068;BME280;6600;51.362;6.686;2022-12-07T06:14:22;101242.97;;;6.04;100.00
13068;BME280;6600;51.362;6.686;2022-12-07T06:16:47;101240.97;;;6.06;100.00
13068;BME280;6600;51.362;6.686;2022-12-07T06:19:13;101242.09;;;6.12;100.00
13068;BME280;6600;51.362;6.686;2022-12-07T06:21:38;101249.09;;;6.13;100.00
13068;BME280;6600;51.362;6.686;2022-12-07T06:24:04;101249.09;;;6.13;100.00
13068;BME280;6600;51.362;6.686;2022-12-07T06:26:29;101241.97;;;6.05;100.00
13068;BME280;6600;51.362;6.686;2022-12-07T06:28:54;101245.47;;;5.98;100.00
13068;BME280;6600;51.362;6.686;2022-12-07T06:31:20;101240.16;;;5.98;100.00
13068;BME280;6600;51.362;6.686;2022-12-07T06:33:45;101245.97;;;6.01;100.00
13068;BME280;6600;51.362;6.686;2022-12-07T06:36:11;101241.13;;;6.05;100.00
13068;BME280;6600;51.362;6.686;2022-12-07T06:38:37;101241.47;;;6.02;100.00
13068;BME280;6600;51.362;6.686;2022-12-07T06:41:02;101241.84;;;5.99;100.00
13068;BME280;6600;51.362;6.686;2022-12-07T06:43:27;101239.81;;;6.01;100.00
13068;BME280;6600;51.362;6.686;2022-12-07T06:45:54;101242.81;;;5.98;100.00
13068;BME280;6600;51.362;6.686;2022-12-07T06:48:19;101239.13;;;6.07;100.00
13068;BME280;6600;51.362;6.686;2022-12-07T06:50:45;101242.31;;;6.02;100.00
13068;BME280;6600;51.362;6.686;2022-12-07T06:53:11;101245.97;;;6.01;100.00
13068;BME280;6600;51.362;6.686;2022-12-07T06:55:36;101244.84;;;5.96;100.00
13068;BME280;6600;51.362;6.686;2022-12-07T06:58:02;101249.13;;;5.97;100.00
13068;BME280;6600;51.362;6.686;2022-12-07T07:00:28;101254.47;;;5.97;100.00
13068;BME280;6600;51.362;6.686;2022-12-07T07:02:54;101251.16;;;5.95;100.00
13068;BME280;6600;51.362;6.686;2022-12-07T07:05:19;101242.53;;;5.93;100.00
13068;BME280;6600;51.362;6.686;2022-12-07T07:07:47;101248.16;;;5.90;100.00
13068;BME280;6600;51.362;6.686;2022-12-07T07:10:13;101246.16;;;5.84;100.00
13068;BME280;6600;51.362;6.686;2022-12-07T07:12:38;101248.84;;;5.84;100.00
13068;BME280;6600;51.362;6.686;2022-12-07T07:15:04;101252.47;;;5.83;100.00
13068;BME280;6600;51.362;6.686;2022-12-07T07:17:29;101249.19;;;5.81;100.00
13068;BME280;6600;51.362;6.686;2022-12-07T07:19:54;101248.19;;;5.74;100.00
13068;BME280;6600;51.362;6.686;2022-12-07T07:22:20;101254.34;;;5.74;100.00
13068;BME280;6600;51.362;6.686;2022-12-07T07:24:45;101250.22;;;5.72;100.00
13068;BME280;6600;51.362;6.686;2022-12-07T07:27:10;101250.69;;;5.75;100.00
13068;BME280;6600;51.362;6.686;2022-12-07T07:29:36;101250.34;;;5.86;100.00
13068;BME280;6600;51.362;6.686;2022-12-07T07:32:01;101263.47;;;5.88;100.00
13068;BME280;6600;51.362;6.686;2022-12-07T07:34:26;101261.00;;;5.78;100.00
13068;BME280;6600;51.362;6.686;2022-12-07T07:36:52;101260.00;;;5.71;100.00
13068;BME280;6600;51.362;6.686;2022-12-07T07:39:17;101265.69;;;5.60;100.00
13068;BME280;6600;51.362;6.686;2022-12-07T07:41:43;101266.19;;;5.55;100.00
13068;BME280;6600;51.362;6.686;2022-12-07T07:44:09;101265.53;;;5.53;100.00
13068;BME280;6600;51.362;6.686;2022-12-07T07:46:35;101262.22;;;5.43;100.00
13068;BME280;6600;51.362;6.686;2022-12-07T07:49:00;101262.56;;;5.40;100.00
13068;BME280;6600;51.362;6.686;2022-12-07T07:51:26;101259.25;;;5.46;100.00
13068;BME280;6600;51.362;6.686;2022-12-07T07:53:51;101268.19;;;5.45;100.00
13068;BME280;6600;51.362;6.686;2022-12-07T07:56:16;101269.22;;;5.44;100.00
13068;BME280;6600;51.362;6.686;2022-12-07T07:58:41;101259.72;;;5.42;100.00
13068;BME280;6600;51.362;6.686;2022-12-07T08:01:07;101264.41;;;5.40;100.00
13068;BME280;6600;51.362;6.686;2022-12-07T08:03:33;101267.88;;;5.40;100.00
13068;BME280;6600;51.362;6.686;2022-12-07T08:05:58;101266.56;;;5.44;100.00
13068;BME280;6600;51.362;6.686;2022-12-07T08:08:23;101269.22;;;5.44;100.00
13068;BME280;6600;51.362;6.686;2022-12-07T08:10:49;101269.72;;;5.48;100.00
13068;BME280;6600;51.362;6.686;2022-12-07T08:13:15;101272.88;;;5.43;100.00
13068;BME280;6600;51.362;6.686;2022-12-07T08:15:44;101268.84;;;5.55;100.00
13068;BME280;6600;51.362;6.686;2022-12-07T08:18:10;101271.69;;;5.46;100.00
13068;BME280;6600;51.362;6.686;2022-12-07T08:20:36;101267.56;;;5.43;100.00
13068;BME280;6600;51.362;6.686;2022-12-07T08:23:03;101270.72;;;5.39;100.00
13068;BME280;6600;51.362;6.686;2022-12-07T08:25:29;101275.19;;;5.38;100.00
13068;BME280;6600;51.362;6.686;2022-12-07T08:27:54;101278.19;;;5.43;100.00
13068;BME280;6600;51.362;6.686;2022-12-07T08:30:20;101275.53;;;5.51;100.00
13068;BME280;6600;51.362;6.686;2022-12-07T08:32:47;101280.66;;;5.61;100.00
13068;BME280;6600;51.362;6.686;2022-12-07T08:35:13;101287.28;;;5.65;100.00
13068;BME280;6600;51.362;6.686;2022-12-07T08:37:39;101283.16;;;5.54;100.00
13068;BME280;6600;51.362;6.686;2022-12-07T08:40:05;101283.81;;;5.56;100.00
13068;BME280;6600;51.362;6.686;2022-12-07T08:42:31;101279.81;;;5.60;100.00
13068;BME280;6600;51.362;6.686;2022-12-07T08:45:07;101281.13;;;5.65;100.00
13068;BME280;6600;51.362;6.686;2022-12-07T08:47:35;101281.44;;;5.70;100.00
13068;BME280;6600;51.362;6.686;2022-12-07T08:50:02;101269.13;;;5.77;100.00
13068;BME280;6600;51.362;6.686;2022-12-07T08:52:30;101274.66;;;6.14;100.00
13068;BME280;6600;51.362;6.686;2022-12-07T08:54:55;101271.50;;;6.49;100.00
13068;BME280;6600;51.362;6.686;2022-12-07T08:57:21;101267.25;;;6.63;100.00
13068;BME280;6600;51.362;6.686;2022-12-07T08:59:46;101276.72;;;6.66;100.00
13068;BME280;6600;51.362;6.686;2022-12-07T09:02:12;101271.53;;;6.72;100.00
13068;BME280;6600;51.362;6.686;2022-12-07T09:04:37;101276.41;;;6.69;100.00
13068;BME280;6600;51.362;6.686;2022-12-07T09:07:03;101270.50;;;6.50;100.00
13068;BME280;6600;51.362;6.686;2022-12-07T09:09:29;101274.84;;;6.51;100.00
13068;BME280;6600;51.362;6.686;2022-12-07T09:11:54;101265.34;;;6.49;100.00
13068;BME280;6600;51.362;6.686;2022-12-07T09:14:21;101271.50;;;6.49;100.00
13068;BME280;6600;51.362;6.686;2022-12-07T09:16:46;101280.47;;;6.48;100.00
13068;BME280;6600;51.362;6.686;2022-12-07T09:19:12;101282.84;;;6.43;100.00
13068;BME280;6600;51.362;6.686;2022-12-07T09:21:37;101272.81;;;6.53;100.00
13068;BME280;6600;51.362;6.686;2022-12-07T09:24:02;101279.09;;;6.60;100.00
13068;BME280;6600;51.362;6.686;2022-12-07T09:26:28;101277.44;;;6.59;100.00
13068;BME280;6600;51.362;6.686;2022-12-07T09:28:53;101279.34;;;6.74;100.00
13068;BME280;6600;51.362;6.686;2022-12-07T09:31:18;101280.28;;;6.81;100.00
13068;BME280;6600;51.362;6.686;2022-12-07T09:33:44;101278.03;;;6.70;100.00
13068;BME280;6600;51.362;6.686;2022-12-07T09:36:09;101286.56;;;6.88;100.00
13068;BME280;6600;51.362;6.686;2022-12-07T09:38:35;101281.47;;;7.01;100.00
13068;BME280;6600;51.362;6.686;2022-12-07T09:41:07;101282.88;;;7.11;100.00
13068;BME280;6600;51.362;6.686;2022-12-07T09:43:34;101279.81;;;7.00;100.00
13068;BME280;6600;51.362;6.686;2022-12-07T09:46:00;101287.03;;;6.91;100.00
13068;BME280;6600;51.362;6.686;2022-12-07T09:48:31;101273.78;;;7.06;100.00
13068;BME280;6600;51.362;6.686;2022-12-07T09:50:58;101280.41;;;7.10;100.00
13068;BME280;6600;51.362;6.686;2022-12-07T09:53:30;101271.75;;;7.08;100.00
13068;BME280;6600;51.362;6.686;2022-12-07T09:55:58;101276.09;;;7.09;100.00
13068;BME280;6600;51.362;6.686;2022-12-07T09:58:26;101278.03;;;7.15;100.00
13068;BME280;6600;51.362;6.686;2022-12-07T10:01:01;101266.00;;;7.19;100.00
13068;BME280;6600;51.362;6.686;2022-12-07T10:03:30;101272.44;;;7.25;100.00
13068;BME280;6600;51.362;6.686;2022-12-07T10:05:56;101270.91;;;7.30;100.00
13068;BME280;6600;51.362;6.686;2022-12-07T10:08:22;101266.63;;;7.44;100.00
13068;BME280;6600;51.362;6.686;2022-12-07T10:10:52;101267.22;;;7.31;100.00
13068;BME280;6600;51.362;6.686;2022-12-07T10:13:33;101272.22;;;7.34;100.00
13068;BME280;6600;51.362;6.686;2022-12-07T10:15:59;101272.22;;;7.34;100.00
13068;BME280;6600;51.362;6.686;2022-12-07T10:21:10;101260.72;;;7.34;100.00
13068;BME280;6600;51.362;6.686;2022-12-07T10:23:37;101261.06;;;7.31;100.00
13068;BME280;6600;51.362;6.686;2022-12-07T10:26:37;101262.00;;;7.52;100.00
13068;BME280;6600;51.362;6.686;2022-12-07T10:31:55;101252.63;;;7.56;100.00
13068;BME280;6600;51.362;6.686;2022-12-07T10:34:24;101252.97;;;7.39;100.00
13068;BME280;6600;51.362;6.686;2022-12-07T10:36:52;101249.63;;;7.89;100.00
13068;BME280;6600;51.362;6.686;2022-12-07T10:39:20;101246.47;;;8.00;100.00
13068;BME280;6600;51.362;6.686;2022-12-07T10:41:56;101243.16;;;7.98;100.00
13068;BME280;6600;51.362;6.686;2022-12-07T10:44:26;101239.56;;;7.91;100.00
13068;BME280;6600;51.362;6.686;2022-12-07T10:46:59;101235.91;;;7.92;100.00
13068;BME280;6600;51.362;6.686;2022-12-07T11:05:39;101224.63;;;8.61;100.00
13068;BME280;6600;51.362;6.686;2022-12-07T11:11:06;101222.22;;;8.67;100.00
13068;BME280;6600;51.362;6.686;2022-12-07T11:13:58;101217.03;;;8.86;100.00
13068;BME280;6600;51.362;6.686;2022-12-07T11:21:58;101202.03;;;9.06;98.81
13068;BME280;6600;51.362;6.686;2022-12-07T11:24:55;101202.38;;;9.03;98.95
13068;BME280;6600;51.362;6.686;2022-12-07T11:27:31;101197.28;;;8.81;98.79
13068;BME280;6600;51.362;6.686;2022-12-07T11:30:20;101198.22;;;8.94;98.15
13068;BME280;6600;51.362;6.686;2022-12-07T11:38:00;101189.56;;;8.92;98.15
13068;BME280;6600;51.362;6.686;2022-12-07T11:40:33;101188.34;;;8.95;99.21
13068;BME280;6600;51.362;6.686;2022-12-07T11:43:13;101181.00;;;9.03;98.78
13068;BME280;6600;51.362;6.686;2022-12-07T11:45:42;101180.78;;;8.98;98.79
13068;BME280;6600;51.362;6.686;2022-12-07T11:48:32;101185.19;;;8.63;99.48
13068;BME280;6600;51.362;6.686;2022-12-07T11:51:00;101173.50;;;8.65;99.29
13068;BME280;6600;51.362;6.686;2022-12-07T11:56:02;101180.13;;;8.47;100.00
13068;BME280;6600;51.362;6.686;2022-12-07T12:03:42;101174.91;;;8.60;100.00
13068;BME280;6600;51.362;6.686;2022-12-07T12:06:09;101173.25;;;8.59;100.00
13068;BME280;6600;51.362;6.686;2022-12-07T12:08:41;101174.25;;;8.58;99.88
13068;BME280;6600;51.362;6.686;2022-12-07T12:16:35;101170.56;;;8.59;98.87
13068;BME280;6600;51.362;6.686;2022-12-07T12:21:38;101166.22;;;8.58;98.65
13068;BME280;6600;51.362;6.686;2022-12-07T12:24:14;101169.94;;;8.57;98.81
13068;BME280;6600;51.362;6.686;2022-12-07T12:26:50;101163.44;;;8.45;99.13
13068;BME280;6600;51.362;6.686;2022-12-07T12:29:21;101159.69;;;8.61;99.44
13068;BME280;6600;51.362;6.686;2022-12-07T12:32:17;101159.38;;;8.71;98.93
13068;BME280;6600;51.362;6.686;2022-12-07T12:42:51;101153.97;;;8.64;99.04
13068;BME280;6600;51.362;6.686;2022-12-07T12:50:24;101137.72;;;8.66;98.83
13068;BME280;6600;51.362;6.686;2022-12-07T12:53:00;101134.44;;;8.63;99.56
13068;BME280;6600;51.362;6.686;2022-12-07T13:00:47;101132.66;;;8.71;99.72
13068;BME280;6600;51.362;6.686;2022-12-07T13:03:26;101129.19;;;8.77;99.73
13068;BME280;6600;51.362;6.686;2022-12-07T13:06:18;101121.72;;;8.66;99.62
13068;BME280;6600;51.362;6.686;2022-12-07T13:08:45;101128.84;;;8.58;99.68
13068;BME280;6600;51.362;6.686;2022-12-07T13:11:19;101127.81;;;8.81;98.83
13068;BME280;6600;51.362;6.686;2022-12-07T13:13:45;101121.91;;;8.64;99.20
13068;BME280;6600;51.362;6.686;2022-12-07T13:18:38;101124.94;;;8.82;99.04
13068;BME280;6600;51.362;6.686;2022-12-07T13:28:52;101112.16;;;8.78;98.36
13068;BME280;6600;51.362;6.686;2022-12-07T13:31:40;101115.06;;;8.83;98.35
13068;BME280;6600;51.362;6.686;2022-12-07T13:34:32;101107.13;;;8.89;97.30
13068;BME280;6600;51.362;6.686;2022-12-07T13:37:00;101103.94;;;8.79;97.77
13068;BME280;6600;51.362;6.686;2022-12-07T13:39:27;101104.16;;;8.78;98.00
13068;BME280;6600;51.362;6.686;2022-12-07T13:41:57;101100.47;;;8.79;97.87
13068;BME280;6600;51.362;6.686;2022-12-07T13:44:25;101096.59;;;8.60;98.54
13068;BME280;6600;51.362;6.686;2022-12-07T13:47:12;101092.41;;;8.72;98.09
13068;BME280;6600;51.362;6.686;2022-12-07T13:49:49;101091.00;;;8.83;97.81
13068;BME280;6600;51.362;6.686;2022-12-07T13:52:18;101088.25;;;8.70;97.38
13068;BME280;6600;51.362;6.686;2022-12-07T13:54:55;101082.94;;;8.76;96.91
13068;BME280;6600;51.362;6.686;2022-12-07T13:57:22;101080.44;;;8.68;97.09
13068;BME280;6600;51.362;6.686;2022-12-07T13:59:47;101080.56;;;8.60;97.23
13068;BME280;6600;51.362;6.686;2022-12-07T14:02:30;101075.41;;;8.58;97.60
13068;BME280;6600;51.362;6.686;2022-12-07T14:05:33;101084.03;;;8.54;97.21
13068;BME280;6600;51.362;6.686;2022-12-07T14:08:22;101077.84;;;8.53;97.43
13068;BME280;6600;51.362;6.686;2022-12-07T14:13:37;101067.69;;;8.42;98.71
13068;BME280;6600;51.362;6.686;2022-12-07T14:16:28;101060.47;;;8.36;99.00
13068;BME280;6600;51.362;6.686;2022-12-07T14:18:56;101059.44;;;8.16;99.44
13068;BME280;6600;51.362;6.686;2022-12-07T14:21:27;101055.72;;;8.17;99.83
13068;BME280;6600;51.362;6.686;2022-12-07T14:24:22;101049.13;;;8.13;100.00
13068;BME280;6600;51.362;6.686;2022-12-07T14:26:49;101057.78;;;8.15;100.00
13068;BME280;6600;51.362;6.686;2022-12-07T14:31:54;101048.03;;;8.07;100.00
13068;BME280;6600;51.362;6.686;2022-12-07T14:34:21;101048.25;;;8.06;100.00
13068;BME280;6600;51.362;6.686;2022-12-07T14:36:46;101046.97;;;8.02;100.00
13068;BME280;6600;51.362;6.686;2022-12-07T14:39:12;101045.19;;;7.88;100.00
13068;BME280;6600;51.362;6.686;2022-12-07T14:41:37;101037.94;;;7.82;100.00
13068;BME280;6600;51.362;6.686;2022-12-07T14:44:20;101029.56;;;7.85;100.00
13068;BME280;6600;51.362;6.686;2022-12-07T14:46:46;101030.78;;;7.82;100.00
13068;BME280;6600;51.362;6.686;2022-12-07T14:49:12;101023.34;;;7.78;100.00
13068;BME280;6600;51.362;6.686;2022-12-07T14:51:39;101023.44;;;7.70;100.00
13068;BME280;6600;51.362;6.686;2022-12-07T14:54:07;101018.88;;;7.63;100.00
13068;BME280;6600;51.362;6.686;2022-12-07T14:56:37;101017.72;;;7.51;100.00
13068;BME280;6600;51.362;6.686;2022-12-07T14:59:03;101012.75;;;7.48;100.00
13068;BME280;6600;51.362;6.686;2022-12-07T15:01:28;101018.97;;;7.34;100.00
13068;BME280;6600;51.362;6.686;2022-12-07T15:03:53;101019.13;;;7.33;100.00
13068;BME280;6600;51.362;6.686;2022-12-07T15:06:19;101019.97;;;7.33;100.00
13068;BME280;6600;51.362;6.686;2022-12-07T15:08:44;101019.06;;;7.26;100.00
13068;BME280;6600;51.362;6.686;2022-12-07T15:11:14;101018.69;;;7.29;100.00
13068;BME280;6600;51.362;6.686;2022-12-07T15:13:39;101018.16;;;7.19;100.00